Time;durP1;ratioP1;P1;durP2;ratioP2;P2;SDS_P1;SDS_P2;PMS_P1;PMS_P2;Temp;Humidity;BMP_temperature;BMP_pressure;BME280_temperature;BME280_humidity;BME280_pressure;Samples;Min_cycle;Max_cycle;Signal;HPM_P1;HPM_P2
2020/12/07 00:00:37;;;;;;;19.23;11.23;;;;;;;7.33;74.65;93650.53;5010003;28;20030;-70
2020/12/07 00:03:03;;;;;;;18.48;10.25;;;;;;;7.34;74.51;93656.63;5009790;28;20022;-70
2020/12/07 00:05:30;;;;;;;22.40;11.27;;;;;;;7.34;74.59;93646.03;5009543;28;20120;-70
2020/12/07 00:07:55;;;;;;;22.15;11.55;;;;;;;7.35;74.64;93643.06;5009971;28;20022;-68
2020/12/07 00:10:20;;;;;;;26.88;11.10;;;;;;;7.31;74.88;93636.03;5010255;28;20156;-68
2020/12/07 00:12:46;;;;;;;16.60;10.57;;;;;;;7.32;74.78;93642.88;5008796;28;20112;-68
2020/12/07 00:15:12;;;;;;;20.13;11.18;;;;;;;7.25;75.09;93638.00;5008795;28;20022;-68
2020/12/07 00:17:37;;;;;;;21.45;10.77;;;;;;;7.30;74.99;93637.09;5012506;28;20133;-68
2020/12/07 00:20:06;;;;;;;17.65;10.23;;;;;;;7.34;74.97;93640.72;5012994;28;20404;-68
2020/12/07 00:22:31;;;;;;;17.48;10.40;;;;;;;7.32;74.69;93632.28;5013810;28;20032;-68
2020/12/07 00:24:58;;;;;;;19.15;11.10;;;;;;;7.34;74.66;93630.09;5013701;28;20033;-68
2020/12/07 00:27:28;;;;;;;16.73;9.70;;;;;;;7.33;74.71;93637.28;5014027;28;20017;-68
2020/12/07 00:29:55;;;;;;;14.80;8.80;;;;;;;7.34;74.60;93630.88;5014390;28;20052;-69
2020/12/07 00:32:22;;;;;;;14.88;8.15;;;;;;;7.34;74.53;93636.19;5013682;28;20400;-70
2020/12/07 00:34:48;;;;;;;15.88;8.50;;;;;;;7.30;74.92;93629.91;5013825;28;20065;-69
2020/12/07 00:37:14;;;;;;;18.10;8.98;;;;;;;7.27;75.04;93619.91;5013428;28;20066;-70
2020/12/07 00:39:39;;;;;;;17.10;8.35;;;;;;;7.26;74.85;93628.16;5013634;28;20088;-69
2020/12/07 00:42:05;;;;;;;14.02;7.80;;;;;;;7.25;74.97;93635.34;5012212;28;20037;-69
2020/12/07 00:44:31;;;;;;;16.80;8.98;;;;;;;7.23;75.02;93632.19;5012053;28;20037;-69
2020/12/07 00:46:57;;;;;;;14.55;7.47;;;;;;;7.26;74.89;93618.34;5012890;28;20029;-63
2020/12/07 00:49:23;;;;;;;12.57;7.63;;;;;;;7.29;74.83;93614.31;5013705;28;20026;-64
2020/12/07 00:51:49;;;;;;;12.80;7.82;;;;;;;7.27;74.75;93600.59;5013422;28;20498;-63
2020/12/07 00:54:17;;;;;;;14.70;7.95;;;;;;;7.23;74.69;93600.38;5012407;28;20096;-64
2020/12/07 00:56:43;;;;;;;11.80;7.15;;;;;;;7.24;74.75;93594.00;5012855;28;20030;-64
2020/12/07 00:59:09;;;;;;;12.90;7.38;;;;;;;7.23;74.39;93595.09;5012696;28;20018;-64
2020/12/07 01:01:35;;;;;;;12.60;7.57;;;;;;;7.27;74.42;93597.94;5013367;28;20064;-63
2020/12/07 01:04:01;;;;;;;16.13;7.93;;;;;;;7.26;74.41;93591.81;5011811;28;20033;-63
2020/12/07 01:06:33;;;;;;;12.20;7.18;;;;;;;7.29;73.81;93593.13;5012983;28;20026;-63
2020/12/07 01:08:59;;;;;;;16.75;8.48;;;;;;;7.21;74.53;93589.31;5013176;28;20022;-64
2020/12/07 01:11:25;;;;;;;14.27;7.78;;;;;;;7.22;74.16;93596.97;5013428;28;20453;-63
2020/12/07 01:13:51;;;;;;;11.52;6.60;;;;;;;7.23;74.17;93589.78;5012851;28;20119;-64
2020/12/07 01:16:23;;;;;;;13.13;7.38;;;;;;;7.23;74.10;93597.75;5013140;28;20160;-63
2020/12/07 01:18:50;;;;;;;13.57;7.65;;;;;;;7.20;74.20;93574.47;5012802;28;20038;-63
2020/12/07 01:21:17;;;;;;;12.55;6.57;;;;;;;7.15;74.19;93569.28;5012754;28;20091;-63
2020/12/07 01:23:44;;;;;;;11.98;6.53;;;;;;;7.13;74.42;93590.78;5013069;28;20052;-63
2020/12/07 01:26:14;;;;;;;11.90;6.25;;;;;;;7.14;73.81;93578.31;5011150;28;20037;-63
2020/12/07 01:28:43;;;;;;;10.65;5.95;;;;;;;7.10;74.14;93572.03;5011951;28;20022;-63
2020/12/07 01:31:08;;;;;;;13.40;6.38;;;;;;;7.12;73.89;93560.03;5012419;28;20402;-63
2020/12/07 01:33:33;;;;;;;11.30;6.20;;;;;;;7.13;74.31;93558.19;5011688;28;20030;-63
2020/12/07 01:35:59;;;;;;;10.75;5.95;;;;;;;7.13;74.10;93566.16;5013537;28;20097;-64
2020/12/07 01:38:25;;;;;;;9.60;6.28;;;;;;;7.13;74.06;93561.63;5012767;28;20030;-63
2020/12/07 01:40:50;;;;;;;10.27;5.60;;;;;;;7.10;74.12;93556.91;5011267;28;20108;-63
2020/12/07 01:43:17;;;;;;;11.75;6.13;;;;;;;7.13;74.32;93556.31;5012547;28;20029;-65
2020/12/07 01:45:43;;;;;;;9.18;5.55;;;;;;;7.15;73.59;93567.41;5012444;28;20069;-63
2020/12/07 01:48:09;;;;;;;10.90;5.93;;;;;;;7.10;73.92;93578.09;5012870;28;20449;-63
2020/12/07 01:50:37;;;;;;;9.23;5.22;;;;;;;7.12;73.51;93564.56;5012687;28;20108;-63
2020/12/07 01:53:03;;;;;;;10.25;5.45;;;;;;;7.10;73.67;93566.72;5012518;28;20109;-64
2020/12/07 01:55:29;;;;;;;13.20;5.63;;;;;;;7.11;73.85;93574.38;5012252;28;20029;-64
2020/12/07 01:57:54;;;;;;;10.10;5.95;;;;;;;7.10;73.76;93562.22;5012023;28;20029;-63
2020/12/07 02:00:21;;;;;;;11.20;6.22;;;;;;;7.10;73.84;93546.31;5012128;28;20029;-64
2020/12/07 02:02:46;;;;;;;9.77;5.30;;;;;;;7.07;74.04;93551.44;5011276;28;20049;-63
2020/12/07 02:05:12;;;;;;;7.75;4.60;;;;;;;7.08;73.71;93550.34;5011178;28;20095;-63
2020/12/07 02:07:37;;;;;;;10.50;5.47;;;;;;;7.15;73.43;93532.19;5012023;28;20018;-62
2020/12/07 02:10:03;;;;;;;10.57;5.70;;;;;;;7.14;73.30;93530.59;5012308;28;20100;-63
2020/12/07 02:12:28;;;;;;;9.13;5.45;;;;;;;7.12;73.49;93536.19;5011940;28;20461;-63
2020/12/07 02:14:54;;;;;;;10.13;5.55;;;;;;;7.04;73.80;93542.19;5012108;28;20018;-63
2020/12/07 02:17:19;;;;;;;10.80;5.85;;;;;;;7.01;74.00;93546.22;5011962;28;20026;-63
2020/12/07 02:19:48;;;;;;;10.57;4.93;;;;;;;7.01;73.78;93542.81;5012139;28;20026;-63
2020/12/07 02:22:14;;;;;;;9.52;5.38;;;;;;;6.99;73.79;93550.28;5012102;28;20026;-64
2020/12/07 02:24:39;;;;;;;8.18;4.47;;;;;;;6.91;73.79;93554.41;5010294;28;20471;-64
2020/12/07 02:27:05;;;;;;;10.70;5.75;;;;;;;6.90;74.16;93544.91;5010505;28;20074;-63
2020/12/07 02:29:30;;;;;;;10.75;5.00;;;;;;;6.91;74.22;93540.38;5011729;28;20544;-63
2020/12/07 02:32:09;;;;;;;12.20;5.97;;;;;;;6.90;74.47;93542.25;5011464;28;20025;-63
2020/12/07 02:34:34;;;;;;;10.98;5.88;;;;;;;6.92;74.31;93536.63;5011613;28;20033;-64
2020/12/07 02:37:00;;;;;;;10.02;5.28;;;;;;;6.88;74.59;93533.81;5011785;28;20033;-64
2020/12/07 02:39:25;;;;;;;8.02;5.18;;;;;;;6.87;74.58;93534.09;5011504;28;20544;-63
2020/12/07 02:41:50;;;;;;;10.02;5.35;;;;;;;6.93;74.38;93530.25;5011544;28;20050;-63
2020/12/07 02:44:16;;;;;;;12.88;5.60;;;;;;;6.93;74.45;93536.34;5011639;28;20076;-62
2020/12/07 02:46:41;;;;;;;11.48;6.45;;;;;;;6.92;74.71;93532.13;5011213;28;20025;-62
2020/12/07 02:49:06;;;;;;;9.73;5.63;;;;;;;6.92;74.72;93532.13;5011358;28;20022;-62
2020/12/07 02:51:32;;;;;;;10.95;5.80;;;;;;;6.92;74.70;93529.50;5010268;28;20108;-62
2020/12/07 02:53:57;;;;;;;11.82;6.93;;;;;;;6.90;74.65;93538.78;5011472;28;20033;-63
2020/12/07 02:56:23;;;;;;;9.82;5.38;;;;;;;6.95;74.71;93536.81;5011424;28;20055;-62
2020/12/07 02:58:48;;;;;;;11.82;6.53;;;;;;;6.91;74.58;93535.84;5011117;28;20049;-62
2020/12/07 03:01:13;;;;;;;11.90;6.32;;;;;;;6.93;74.69;93546.16;5011079;28;20029;-62
2020/12/07 03:03:39;;;;;;;11.40;5.80;;;;;;;6.90;74.31;93541.44;5011262;28;20025;-63
2020/12/07 03:06:04;;;;;;;9.60;5.72;;;;;;;6.88;74.55;93552.34;5010847;28;20500;-63
2020/12/07 03:08:30;;;;;;;11.40;5.60;;;;;;;6.90;74.49;93552.84;5010951;28;20084;-63
2020/12/07 03:10:55;;;;;;;10.90;5.75;;;;;;;6.87;74.47;93537.53;5009806;28;20380;-62
2020/12/07 03:13:20;;;;;;;11.63;5.68;;;;;;;6.88;74.58;93539.13;5011306;28;20465;-62
2020/12/07 03:15:46;;;;;;;10.85;6.13;;;;;;;6.89;74.53;93539.88;5010082;28;20539;-63
2020/12/07 03:18:11;;;;;;;11.07;6.10;;;;;;;6.89;74.77;93540.66;5010553;28;20026;-62
2020/12/07 03:20:37;;;;;;;9.25;5.10;;;;;;;6.90;74.31;93529.00;5011061;28;20025;-63
2020/12/07 03:23:02;;;;;;;11.27;5.30;;;;;;;6.91;74.60;93538.50;5010920;28;20021;-62
2020/12/07 03:25:27;;;;;;;11.80;6.72;;;;;;;6.94;74.55;93553.81;5009567;28;20128;-63
2020/12/07 03:27:53;;;;;;;12.10;6.85;;;;;;;6.90;74.70;93542.25;5010734;28;20465;-62
2020/12/07 03:30:19;;;;;;;8.18;5.32;;;;;;;6.91;74.69;93545.69;5010527;28;20475;-62
2020/12/07 03:32:44;;;;;;;9.43;5.65;;;;;;;6.91;74.40;93554.41;5010658;28;20034;-63
2020/12/07 03:35:10;;;;;;;12.27;6.70;;;;;;;6.91;74.58;93559.69;5009376;28;20026;-63
2020/12/07 03:37:35;;;;;;;10.48;5.70;;;;;;;6.91;74.66;93551.75;5009247;28;20087;-63
2020/12/07 03:40:00;;;;;;;10.38;6.18;;;;;;;6.88;74.80;93549.72;5010481;28;20049;-63
2020/12/07 03:42:26;;;;;;;8.95;5.75;;;;;;;6.91;74.46;93553.63;5009423;28;20108;-63
2020/12/07 03:44:51;;;;;;;10.23;5.70;;;;;;;6.93;74.13;93549.59;5010751;28;20018;-63
2020/12/07 03:47:17;;;;;;;11.27;5.88;;;;;;;6.92;73.95;93533.97;5010619;28;20068;-62
2020/12/07 03:49:42;;;;;;;9.10;4.88;;;;;;;6.93;73.96;93535.56;5009097;28;20152;-62
2020/12/07 03:52:08;;;;;;;9.23;4.72;;;;;;;6.93;73.60;93539.00;5010351;28;20404;-63
2020/12/07 03:54:33;;;;;;;9.90;5.00;;;;;;;6.96;73.38;93535.75;5010628;28;20029;-64
2020/12/07 03:56:58;;;;;;;9.95;4.82;;;;;;;6.95;73.24;93539.47;5010326;28;20057;-63
2020/12/07 03:59:24;;;;;;;8.55;4.95;;;;;;;6.99;73.23;93539.66;5009951;28;20115;-63
2020/12/07 04:01:50;;;;;;;8.82;5.43;;;;;;;6.99;73.27;93543.09;5010146;28;20513;-63
2020/12/07 04:04:19;;;;;;;7.90;5.03;;;;;;;6.97;73.03;93539.19;5010256;28;20034;-63
2020/12/07 04:06:46;;;;;;;10.80;5.15;;;;;;;6.99;72.89;93543.09;5009197;28;20026;-63
2020/12/07 04:09:11;;;;;;;12.05;5.65;;;;;;;7.06;72.77;93541.91;5010297;28;20112;-63
2020/12/07 04:11:37;;;;;;;11.90;6.30;;;;;;;7.05;72.91;93543.78;5008984;28;20435;-63
2020/12/07 04:14:02;;;;;;;9.45;5.57;;;;;;;7.02;73.03;93537.22;5009213;28;20124;-63
2020/12/07 04:16:28;;;;;;;9.10;5.50;;;;;;;7.05;73.08;93543.00;5010228;28;20543;-63
2020/12/07 04:18:54;;;;;;;9.68;5.40;;;;;;;7.04;72.94;93539.53;5010159;28;20057;-63
2020/12/07 04:21:19;;;;;;;9.90;5.78;;;;;;;7.05;72.82;93546.44;5010073;28;20084;-63
2020/12/07 04:23:45;;;;;;;11.60;6.65;;;;;;;7.11;72.89;93544.47;5010088;28;20485;-64
2020/12/07 04:26:10;;;;;;;9.98;6.00;;;;;;;7.05;73.05;93538.47;5010567;28;20022;-63
2020/12/07 04:28:36;;;;;;;10.00;5.53;;;;;;;7.12;72.92;93536.19;5010188;28;20018;-63
2020/12/07 04:31:01;;;;;;;11.45;6.43;;;;;;;7.06;73.01;93533.97;5010147;28;20061;-63
2020/12/07 04:33:27;;;;;;;10.88;6.18;;;;;;;7.07;73.21;93538.19;5010125;28;20065;-63
2020/12/07 04:35:52;;;;;;;11.73;6.70;;;;;;;7.06;73.16;93540.03;5008781;28;20103;-62
2020/12/07 04:38:18;;;;;;;15.38;7.75;;;;;;;7.07;73.79;93538.19;5009955;28;20025;-63
2020/12/07 04:40:43;;;;;;;14.25;7.57;;;;;;;7.07;73.89;93540.84;5010214;28;20074;-63
2020/12/07 04:43:09;;;;;;;12.02;6.75;;;;;;;7.04;73.66;93539.53;5008494;28;20057;-63
2020/12/07 04:45:34;;;;;;;12.05;7.25;;;;;;;7.04;73.95;93534.25;5009897;28;20025;-63
2020/12/07 04:48:01;;;;;;;12.23;6.50;;;;;;;7.05;73.71;93530.53;5009910;28;20175;-63
2020/12/07 04:50:29;;;;;;;11.98;6.88;;;;;;;7.10;73.24;93529.63;5010011;28;20081;-64
2020/12/07 04:52:56;;;;;;;13.18;7.38;;;;;;;7.08;73.58;93539.75;5009569;28;20022;-63
2020/12/07 04:55:21;;;;;;;12.85;6.88;;;;;;;7.06;73.72;93533.97;5009671;28;20026;-63
2020/12/07 04:57:48;;;;;;;15.05;7.82;;;;;;;7.02;73.99;93537.22;5009471;28;20456;-63
2020/12/07 05:00:13;;;;;;;16.55;7.53;;;;;;;7.08;74.09;93529.16;5010016;28;20030;-63
2020/12/07 05:02:39;;;;;;;11.73;6.97;;;;;;;7.05;73.97;93532.41;5010448;28;20040;-64
2020/12/07 05:05:06;;;;;;;12.30;6.97;;;;;;;6.99;73.90;93537.78;5013397;28;20025;-65
2020/12/07 05:07:33;;;;;;;14.02;6.90;;;;;;;6.96;74.06;93522.50;5013132;28;20030;-63
2020/12/07 05:10:02;;;;;;;12.13;7.43;;;;;;;6.99;74.03;93529.06;5013086;28;20033;-63
2020/12/07 05:12:36;;;;;;;16.40;8.55;;;;;;;7.02;73.96;93517.88;5013250;28;20049;-64
2020/12/07 05:15:05;;;;;;;14.48;7.53;;;;;;;6.98;73.73;93523.00;5013444;28;20033;-63
2020/12/07 05:17:31;;;;;;;14.32;6.65;;;;;;;6.95;73.78;93528.88;5013142;28;20029;-64
2020/12/07 05:19:57;;;;;;;13.75;7.72;;;;;;;6.93;73.59;93525.75;5012898;28;20037;-63
2020/12/07 05:22:22;;;;;;;12.40;7.22;;;;;;;6.87;73.78;93526.16;5012819;28;20061;-64
2020/12/07 05:24:51;;;;;;;14.82;7.45;;;;;;;6.88;73.91;93535.66;5013124;28;20059;-64
2020/12/07 05:27:17;;;;;;;12.77;7.47;;;;;;;6.91;73.51;93543.81;5011788;28;20120;-63
2020/12/07 05:30:08;;;;;;;12.05;7.15;;;;;;;6.92;73.78;93531.34;5012799;28;20025;-63
2020/12/07 05:32:35;;;;;;;13.35;6.95;;;;;;;6.88;74.14;93536.47;5011717;28;20033;-63
2020/12/07 05:35:02;;;;;;;11.75;6.95;;;;;;;6.88;74.37;93531.16;5011558;28;20017;-63
2020/12/07 05:37:35;;;;;;;12.20;7.50;;;;;;;6.85;74.67;93533.63;5011655;28;20033;-63
2020/12/07 05:40:03;;;;;;;14.82;7.00;;;;;;;6.84;74.63;93540.78;5012679;28;20032;-63
2020/12/07 05:42:30;;;;;;;14.60;7.28;;;;;;;6.89;74.86;93538.00;5011398;28;20045;-63
2020/12/07 05:44:57;;;;;;;13.50;7.40;;;;;;;6.90;74.77;93533.50;5011350;28;20021;-63
2020/12/07 05:47:24;;;;;;;15.00;8.50;;;;;;;6.86;74.65;93532.53;5012508;28;20109;-63
2020/12/07 05:49:51;;;;;;;22.05;8.38;;;;;;;6.89;74.63;93532.72;5012490;28;20028;-62
2020/12/07 05:52:25;;;;;;;20.17;9.15;;;;;;;6.89;75.04;93524.00;5012833;28;20059;-62
2020/12/07 05:54:53;;;;;;;22.02;9.00;;;;;;;6.81;75.22;93526.25;5012559;28;20108;-62
2020/12/07 05:57:20;;;;;;;17.52;9.00;;;;;;;6.81;75.27;93525.47;5010509;28;20103;-63
2020/12/07 05:59:52;;;;;;;20.15;9.50;;;;;;;6.76;75.31;93517.66;5012832;28;20481;-63
2020/12/07 06:02:19;;;;;;;16.30;7.72;;;;;;;6.69;75.69;93527.84;5007226;28;20057;-62
2020/12/07 06:04:46;;;;;;;21.67;9.13;;;;;;;6.67;75.69;93520.19;5012510;28;20092;-62
2020/12/07 06:07:13;;;;;;;15.50;8.95;;;;;;;6.61;76.00;93513.44;5011106;28;20416;-63
2020/12/07 06:09:41;;;;;;;18.23;8.93;;;;;;;6.59;76.05;93511.09;5012174;28;20030;-63
2020/12/07 06:12:13;;;;;;;18.70;9.40;;;;;;;6.58;75.86;93514.03;5012333;28;20560;-63
2020/12/07 06:14:39;;;;;;;16.67;8.52;;;;;;;6.54;76.31;93515.72;5011289;28;20062;-63
2020/12/07 06:17:04;;;;;;;15.15;9.50;;;;;;;6.56;76.12;93501.09;5010839;28;20036;-63
2020/12/07 06:19:33;;;;;;;21.23;9.02;;;;;;;6.51;76.20;93498.53;5011922;28;20022;-63
2020/12/07 06:22:02;;;;;;;17.35;8.85;;;;;;;6.46;76.44;93506.59;5012196;28;20030;-63
2020/12/07 06:24:38;;;;;;;15.23;8.82;;;;;;;6.45;76.80;93504.22;5011608;28;20030;-64
2020/12/07 06:27:06;;;;;;;14.38;8.60;;;;;;;6.43;76.86;93497.38;5011955;28;20031;-63
2020/12/07 06:29:32;;;;;;;14.77;8.38;;;;;;;6.45;76.74;93505.00;5011466;28;20491;-63
2020/12/07 06:31:58;;;;;;;16.27;9.02;;;;;;;6.46;76.77;93500.50;5011667;28;20108;-63
2020/12/07 06:34:40;;;;;;;21.20;9.98;;;;;;;6.50;76.70;93506.78;5010842;28;20022;-62
2020/12/07 06:37:14;;;;;;;20.70;9.30;;;;;;;6.50;76.57;93494.31;5011737;28;20033;-62
2020/12/07 06:39:46;;;;;;;18.60;8.75;;;;;;;6.50;76.89;93502.25;5011265;28;20048;-63
2020/12/07 06:42:15;;;;;;;;;;;;;;;6.53;76.86;93503.53;5009987;28;20088;-63
2020/12/07 06:44:50;;;;;;;15.40;8.02;;;;;;;6.54;76.78;93495.31;5011598;28;19918;-62
2020/12/07 06:47:20;;;;;;;24.73;9.00;;;;;;;6.64;76.06;93499.59;5011677;28;20029;-64
2020/12/07 06:52:22;;;;;;;16.98;9.05;;;;;;;6.58;76.15;93496.28;5011548;28;20057;-62
2020/12/07 06:57:30;;;;;;;19.55;9.38;;;;;;;6.64;75.62;93473.13;5011010;28;20108;-63
2020/12/07 07:00:05;;;;;;;17.95;9.48;;;;;;;6.61;75.80;93484.31;5010878;28;20464;-64
2020/12/07 07:02:31;;;;;;;15.45;8.05;;;;;;;6.62;75.56;93470.78;5009871;28;20068;-63
2020/12/07 07:05:01;;;;;;;14.93;7.85;;;;;;;6.58;75.44;93469.78;5009792;28;20049;-63
2020/12/07 07:07:29;;;;;;;13.85;8.00;;;;;;;6.53;76.10;93477.84;5011183;28;20076;-64
2020/12/07 07:09:55;;;;;;;16.00;8.75;;;;;;;6.52;76.18;93475.50;5010636;28;20096;-63
2020/12/07 07:12:22;;;;;;;16.95;8.48;;;;;;;6.54;75.90;93466.19;5009091;28;22074;-63
2020/12/07 07:14:52;;;;;;;17.17;8.57;;;;;;;6.51;75.73;93466.75;5011008;28;20030;-66
2020/12/07 07:17:18;;;;;;;15.40;8.88;;;;;;;6.56;75.73;93463.22;5010541;28;20108;-63
2020/12/07 07:19:44;;;;;;;15.25;7.82;;;;;;;6.58;75.72;93456.56;5010476;28;20035;-64
2020/12/07 07:22:13;;;;;;;14.57;7.95;;;;;;;6.54;75.30;93471.47;5010666;28;20104;-65
2020/12/07 07:29:59;;;;;;;12.75;6.72;;;;;;;6.62;75.16;93476.06;5010654;28;20036;-64
2020/12/07 07:32:25;;;;;;;15.98;7.60;;;;;;;6.67;74.84;93466.44;5008636;28;20025;-64
2020/12/07 07:34:51;;;;;;;13.00;6.38;;;;;;;6.76;74.60;93469.97;5010643;28;20072;-64
2020/12/07 07:37:17;;;;;;;19.38;7.10;;;;;;;6.81;74.66;93469.84;5008885;28;20108;-64
2020/12/07 07:39:49;;;;;;;16.10;6.75;;;;;;;6.90;73.92;93461.97;5010019;28;20473;-63
2020/12/07 07:42:17;;;;;;;15.85;7.72;;;;;;;7.00;73.48;93473.13;5008532;28;20037;-63
2020/12/07 07:44:48;;;;;;;23.90;10.18;;;;;;;7.11;73.43;93478.97;5003028;28;20423;-64
2020/12/07 07:47:22;;;;;;;19.75;10.07;;;;;;;7.17;73.11;93471.69;5009876;28;20079;-63
2020/12/07 07:58:36;;;;;;;13.35;7.10;;;;;;;7.21;72.37;93477.97;5010224;28;20033;-62
2020/12/07 08:06:40;;;;;;;19.17;9.00;;;;;;;7.23;72.84;93476.56;5010184;28;20037;-63
2020/12/07 08:17:11;;;;;;;11.30;6.72;;;;;;;7.27;72.12;93487.38;5007541;28;20068;-63
2020/12/07 08:19:36;;;;;;;11.60;7.22;;;;;;;7.34;72.66;93482.41;5010261;28;20475;-63
2020/12/07 08:22:31;;;;;;;25.23;8.38;;;;;;;7.29;72.16;93479.91;5008622;28;20026;-64
2020/12/07 08:25:00;;;;;;;14.55;7.13;;;;;;;7.23;72.50;93467.84;5004123;28;20416;-63
2020/12/07 08:27:33;;;;;;;13.02;8.27;;;;;;;7.19;72.82;93472.19;5010181;28;20026;-64
2020/12/07 08:30:02;;;;;;;17.67;8.43;;;;;;;7.20;72.86;93466.56;5010094;28;20037;-64
2020/12/07 08:32:28;;;;;;;17.23;7.25;;;;;;;7.18;72.88;93470.59;5010095;28;20473;-64
2020/12/07 08:34:53;;;;;;;13.73;7.70;;;;;;;7.21;72.88;93467.38;5009708;28;20108;-64
2020/12/07 08:37:19;;;;;;;13.35;7.82;;;;;;;7.17;73.03;93480.44;5011897;28;20030;-64
2020/12/07 08:39:44;;;;;;;13.55;7.47;;;;;;;7.07;72.78;93485.19;5013796;28;20108;-65
2020/12/07 08:42:10;;;;;;;13.32;7.70;;;;;;;7.05;73.05;93474.09;5013404;28;20045;-65
2020/12/07 08:44:37;;;;;;;11.05;6.25;;;;;;;7.07;73.09;93482.53;5013259;28;20030;-63
2020/12/07 08:47:06;;;;;;;12.82;6.15;;;;;;;7.09;72.76;93475.06;5013402;28;20041;-62
2020/12/07 08:49:32;;;;;;;14.07;6.05;;;;;;;7.11;71.96;93464.94;5013372;28;20409;-63
2020/12/07 08:51:57;;;;;;;9.15;5.57;;;;;;;7.13;72.20;93474.16;5013423;28;20028;-63
2020/12/07 08:54:22;;;;;;;18.27;6.97;;;;;;;7.19;73.02;93467.66;5012470;28;20531;-63
2020/12/07 08:56:48;;;;;;;18.88;7.78;;;;;;;7.24;72.77;93461.44;5013220;28;20061;-63
2020/12/07 08:59:14;;;;;;;17.67;8.38;;;;;;;7.26;73.02;93451.31;5013038;28;20084;-63
2020/12/07 09:01:40;;;;;;;15.52;8.98;;;;;;;7.30;72.87;93447.00;5012268;28;20033;-63
2020/12/07 09:04:08;;;;;;;23.20;10.35;;;;;;;7.32;72.20;93444.81;5011756;28;20113;-63
2020/12/07 09:06:33;;;;;;;13.82;8.07;;;;;;;7.42;71.90;93441.13;5012053;28;20477;-64
2020/12/07 09:08:59;;;;;;;17.48;7.97;;;;;;;7.47;72.07;93432.28;5013202;28;20064;-63
2020/12/07 09:11:24;;;;;;;15.25;8.27;;;;;;;7.51;72.14;93422.63;5011904;28;20038;-63
2020/12/07 09:13:50;;;;;;;13.82;7.70;;;;;;;7.53;71.78;93421.25;5011837;28;20033;-64
2020/12/07 09:16:15;;;;;;;13.73;7.70;;;;;;;7.48;72.15;93413.41;5012765;28;20025;-64
2020/12/07 09:18:41;;;;;;;10.75;6.22;;;;;;;7.47;71.53;93411.88;5011609;28;20028;-63
2020/12/07 09:21:08;;;;;;;13.93;7.65;;;;;;;7.48;71.28;93417.94;5011573;28;20024;-63
2020/12/07 09:23:34;;;;;;;13.25;7.15;;;;;;;7.40;71.39;93422.88;5012662;28;20404;-63
2020/12/07 09:26:01;;;;;;;13.35;7.20;;;;;;;7.38;71.26;93416.31;5013021;28;20044;-63
2020/12/07 09:28:27;;;;;;;13.23;7.00;;;;;;;7.38;71.11;93424.28;5012639;28;20026;-63
2020/12/07 09:30:52;;;;;;;13.13;7.43;;;;;;;7.34;71.27;93420.66;5012898;28;20408;-63
2020/12/07 09:33:18;;;;;;;14.05;8.15;;;;;;;7.31;71.37;93413.34;5012570;28;20030;-63
2020/12/07 09:35:43;;;;;;;13.27;7.72;;;;;;;7.25;71.33;93412.66;5011453;28;20042;-63
2020/12/07 09:38:09;;;;;;;25.80;8.07;;;;;;;7.29;71.50;93408.31;5012437;28;20412;-64
2020/12/07 09:40:35;;;;;;;11.30;7.20;;;;;;;7.29;71.00;93410.19;5012040;28;20493;-63
2020/12/07 09:43:01;;;;;;;14.50;7.45;;;;;;;7.29;70.87;93410.97;5011441;28;20034;-64
2020/12/07 09:45:27;;;;;;;14.25;6.85;;;;;;;7.32;70.25;93406.94;5012213;28;20064;-64
2020/12/07 09:47:53;;;;;;;13.75;7.00;;;;;;;7.36;70.10;93406.00;5010492;28;20030;-64
2020/12/07 09:50:18;;;;;;;11.13;6.63;;;;;;;7.35;70.21;93409.75;5012156;28;20040;-64
2020/12/07 09:52:44;;;;;;;13.38;6.40;;;;;;;7.36;70.31;93410.53;5012276;28;20459;-64
2020/12/07 09:55:09;;;;;;;11.25;6.00;;;;;;;7.39;69.75;93402.00;5011079;28;20061;-66
2020/12/07 09:57:35;;;;;;;11.40;6.57;;;;;;;7.46;69.90;93404.97;5012399;28;20037;-65
2020/12/07 10:00:00;;;;;;;11.27;6.15;;;;;;;7.45;69.53;93403.44;5011367;28;20044;-65
2020/12/07 10:02:26;;;;;;;10.82;6.10;;;;;;;7.41;69.84;93392.63;5011134;28;20107;-65
2020/12/07 10:04:51;;;;;;;11.27;6.47;;;;;;;7.38;70.07;93382.63;5012041;28;20109;-66
2020/12/07 10:07:17;;;;;;;18.17;7.10;;;;;;;7.35;70.11;93382.47;5012297;28;20026;-65
2020/12/07 10:09:42;;;;;;;13.20;6.80;;;;;;;7.33;70.71;93384.66;5010835;28;20029;-65
2020/12/07 10:12:08;;;;;;;14.75;8.15;;;;;;;7.36;70.24;93390.09;5010906;28;20405;-65
2020/12/07 10:14:33;;;;;;;16.08;8.57;;;;;;;7.40;70.26;93377.03;5012088;28;20031;-65
2020/12/07 10:16:59;;;;;;;17.58;10.20;;;;;;;7.50;70.15;93376.00;5012002;28;20021;-65
2020/12/07 10:19:25;;;;;;;16.65;8.00;;;;;;;7.49;70.08;93377.88;5010828;28;20405;-64
2020/12/07 10:21:51;;;;;;;11.65;7.00;;;;;;;7.54;69.61;93361.81;5011971;28;20038;-65
2020/12/07 10:24:16;;;;;;;10.93;6.80;;;;;;;7.53;69.35;93370.06;5011979;28;20053;-65
2020/12/07 10:26:42;;;;;;;12.95;7.38;;;;;;;7.56;69.29;93362.28;5010818;28;20481;-65
2020/12/07 10:29:07;;;;;;;11.82;6.22;;;;;;;7.53;69.40;93357.59;5011533;28;20473;-65
2020/12/07 10:31:33;;;;;;;13.65;6.28;;;;;;;7.53;69.20;93347.00;5012019;28;20026;-65
2020/12/07 10:33:58;;;;;;;9.80;6.28;;;;;;;7.54;68.97;93342.47;5010690;28;20030;-65
2020/12/07 10:36:24;;;;;;;10.10;5.78;;;;;;;7.60;68.49;93338.59;5011529;28;20022;-66
2020/12/07 10:38:51;;;;;;;8.35;5.13;;;;;;;7.64;68.30;93331.59;5010047;28;20026;-65
2020/12/07 10:41:16;;;;;;;12.90;7.05;;;;;;;7.69;68.34;93334.09;5010159;28;20107;-65
2020/12/07 10:43:42;;;;;;;10.20;5.70;;;;;;;7.74;67.78;93336.63;5010116;28;20037;-66
2020/12/07 10:46:08;;;;;;;11.75;6.13;;;;;;;7.84;67.88;93344.28;5011427;28;20025;-65
2020/12/07 10:48:33;;;;;;;11.32;6.50;;;;;;;7.88;67.55;93351.66;5010286;28;20030;-65
2020/12/07 10:50:59;;;;;;;15.73;7.90;;;;;;;7.84;68.24;93335.56;5009923;28;20417;-65
2020/12/07 10:53:25;;;;;;;14.93;7.57;;;;;;;7.81;68.51;93344.88;5011291;28;20108;-65
2020/12/07 10:55:52;;;;;;;14.77;7.47;;;;;;;7.81;68.52;93330.84;5011320;28;20507;-65
2020/12/07 10:58:18;;;;;;;22.88;7.53;;;;;;;7.78;68.85;93340.22;5009309;28;20113;-64
2020/12/07 11:00:44;;;;;;;11.45;7.18;;;;;;;7.82;68.76;93338.50;5010829;28;20143;-64
2020/12/07 11:03:09;;;;;;;11.95;7.25;;;;;;;7.86;68.50;93320.09;5009395;28;20025;-65
2020/12/07 11:05:35;;;;;;;17.08;8.07;;;;;;;7.76;69.12;93336.31;5011038;28;20069;-65
2020/12/07 11:08:02;;;;;;;13.82;8.27;;;;;;;7.75;69.07;93327.56;5010903;28;20057;-66
2020/12/07 11:10:28;;;;;;;14.25;8.27;;;;;;;7.77;69.04;93330.69;5009493;28;20041;-64
2020/12/07 11:13:04;;;;;;;12.82;7.50;;;;;;;7.76;68.72;93326.47;5009526;28;20084;-64
2020/12/07 11:15:30;;;;;;;13.65;7.90;;;;;;;7.75;68.84;93322.25;5010734;28;20931;-66
2020/12/07 11:17:55;;;;;;;16.08;8.73;;;;;;;7.78;68.20;93321.66;5009421;28;20125;-66
2020/12/07 11:20:20;;;;;;;12.05;7.60;;;;;;;7.79;68.15;93328.50;5008998;28;20211;-68
2020/12/07 11:22:46;;;;;;;15.23;7.30;;;;;;;7.77;68.09;93322.72;5010557;28;20104;-74
2020/12/07 11:25:12;;;;;;;15.23;7.88;;;;;;;7.76;68.63;93321.16;5010537;28;20036;-74
2020/12/07 11:27:37;;;;;;;14.10;7.60;;;;;;;7.75;68.59;93316.94;5010419;28;20033;-75
2020/12/07 11:30:03;;;;;;;14.20;8.88;;;;;;;7.72;69.07;93325.53;5010328;28;20037;-75
2020/12/07 11:32:29;;;;;;;14.30;7.95;;;;;;;7.65;68.97;93309.25;5010300;28;20469;-70
2020/12/07 11:34:54;;;;;;;12.55;8.05;;;;;;;7.60;69.00;93317.38;5009186;28;20068;-70
2020/12/07 11:37:20;;;;;;;18.67;9.57;;;;;;;7.55;69.40;93310.34;5010430;28;20026;-71
2020/12/07 11:45:38;;;;;;;12.77;7.85;;;;;;;7.49;70.02;93308.91;4998374;28;20037;-70
2020/12/07 11:48:03;;;;;;;18.75;8.57;;;;;;;7.50;70.00;93304.38;5009202;28;20163;-68
2020/12/07 11:50:28;;;;;;;15.40;9.18;;;;;;;7.50;69.79;93288.47;5009202;28;20034;-68
2020/12/07 11:52:54;;;;;;;14.70;7.70;;;;;;;7.42;69.86;93303.25;5009205;28;20101;-67
2020/12/07 11:55:19;;;;;;;21.52;7.22;;;;;;;7.47;69.68;93305.00;5009023;28;20026;-68
2020/12/07 11:57:45;;;;;;;14.18;7.65;;;;;;;7.52;69.70;93297.69;5008843;28;20026;-67
2020/12/07 12:00:11;;;;;;;16.30;8.02;;;;;;;7.51;69.90;93301.44;5010264;28;20030;-68
2020/12/07 12:02:37;;;;;;;12.30;7.40;;;;;;;7.49;69.85;93292.22;5008934;28;20041;-68
2020/12/07 12:05:03;;;;;;;11.63;7.10;;;;;;;7.52;69.11;93288.97;5010243;28;20022;-68
2020/12/07 12:07:28;;;;;;;13.95;6.72;;;;;;;7.52;68.60;93286.31;5010219;28;20033;-68
2020/12/07 12:09:53;;;;;;;15.68;8.18;;;;;;;7.49;69.10;93278.94;5008839;28;20068;-68